Time,TemperatureF,DewpointF,PressureIn,WindDirection,WindDirectionDegrees,WindSpeedMPH,WindSpeedGustMPH,Humidity,HourlyPrecipIn,Conditions,Clouds,dailyrainin,SoftwareType,DateUTC
2017-06-22 00:04:00,47.5,46.1,30.21,NE,45,0.0,0.0,95,0.00,,CLR,0.00,VWS V14.01,2017-06-22 07:04:00,
2017-06-22 00:09:00,47.5,46.1,30.21,North,0,0.0,0.0,95,0.00,,CLR,0.00,VWS V14.01,2017-06-22 07:09:00,
2017-06-22 00:14:00,47.3,45.9,30.21,West,270,0.0,1.3,95,0.00,,CLR,0.00,VWS V14.01,2017-06-22 07:14:00,
2017-06-22 00:19:00,47.1,46.0,30.21,NE,45,0.0,2.5,96,0.00,,CLR,0.00,VWS V14.01,2017-06-22 07:19:00,
2017-06-22 00:24:00,46.9,45.6,30.21,NNE,22,0.0,2.5,95,0.00,,CLR,0.00,VWS V14.01,2017-06-22 07:24:00,
2017-06-22 00:29:00,46.9,45.9,30.21,NE,45,0.0,2.5,96,0.00,,CLR,0.00,VWS V14.01,2017-06-22 07:29:00,
2017-06-22 00:34:00,46.6,45.5,30.24,North,0,0.0,0.0,96,0.00,,FEW047,0.00,VWS V14.01,2017-06-22 07:34:00,
2017-06-22 00:39:00,46.8,46.0,30.24,SW,225,2.9,3.1,97,0.00,,FEW047,0.00,VWS V14.01,2017-06-22 07:39:00,
2017-06-22 00:44:00,46.6,46.0,30.24,NE,45,0.0,3.1,98,0.00,,FEW047,0.00,VWS V14.01,2017-06-22 07:44:00,
2017-06-22 00:49:00,46.2,45.4,30.21,WSW,248,0.0,3.1,97,0.00,,FEW047,0.00,VWS V14.01,2017-06-22 07:49:00,
2017-06-22 00:54:00,46.4,45.9,30.21,WSW,248,0.0,3.1,98,0.00,,FEW047,0.00,VWS V14.01,2017-06-22 07:54:00,
2017-06-22 00:59:00,46.2,45.7,30.21,NNE,22,0.0,3.1,98,0.00,,FEW047,0.00,VWS V14.01,2017-06-22 07:59:00,
2017-06-22 01:04:00,46.0,45.2,30.21,SW,225,0.0,0.0,97,0.00,,CLR,0.00,VWS V14.01,2017-06-22 08:04:00,
2017-06-22 01:09:00,45.7,44.9,30.21,North,0,0.0,2.2,97,0.00,,CLR,0.00,VWS V14.01,2017-06-22 08:09:00,
2017-06-22 01:14:00,45.5,44.7,30.21,ENE,68,0.0,2.2,97,0.00,,CLR,0.00,VWS V14.01,2017-06-22 08:14:00,
2017-06-22 01:19:00,45.3,44.5,30.24,NE,45,0.0,2.2,97,0.00,,CLR,0.00,VWS V14.01,2017-06-22 08:19:00,
2017-06-22 01:24:00,45.0,44.2,30.24,East,90,0.0,2.2,97,0.00,,CLR,0.00,VWS V14.01,2017-06-22 08:24:00,
2017-06-22 01:29:00,44.8,44.0,30.24,West,270,0.0,2.2,97,0.00,,CLR,0.00,VWS V14.01,2017-06-22 08:29:00,
2017-06-22 01:34:00,44.2,43.4,30.21,NE,45,0.0,0.0,97,0.00,,CLR,0.00,VWS V14.01,2017-06-22 08:34:00,
2017-06-22 01:39:00,44.1,43.3,30.21,NNE,22,0.0,0.0,97,0.00,,CLR,0.00,VWS V14.01,2017-06-22 08:39:00,
2017-06-22 01:44:00,43.9,43.1,30.21,West,270,0.0,0.0,97,0.00,,CLR,0.00,VWS V14.01,2017-06-22 08:44:00,
2017-06-22 01:49:00,43.7,42.9,30.24,West,270,0.0,0.0,97,0.00,,CLR,0.00,VWS V14.01,2017-06-22 08:49:00,
2017-06-22 01:54:00,43.5,42.7,30.24,NNE,22,0.0,0.0,97,0.00,,CLR,0.00,VWS V14.01,2017-06-22 08:54:00,
2017-06-22 01:59:00,43.3,42.5,30.24,NNE,22,0.0,0.0,97,0.00,,CLR,0.00,VWS V14.01,2017-06-22 08:59:00,
2017-06-22 02:04:00,43.0,41.9,30.24,WSW,248,0.0,0.0,96,0.00,,CLR,0.00,VWS V14.01,2017-06-22 09:04:00,
2017-06-22 02:09:00,42.8,42.0,30.24,West,270,0.0,0.0,97,0.00,,CLR,0.00,VWS V14.01,2017-06-22 09:09:00,
2017-06-22 02:14:00,42.8,42.0,30.24,North,0,0.0,0.0,97,0.00,,CLR,0.00,VWS V14.01,2017-06-22 09:14:00,
2017-06-22 02:19:00,42.4,41.7,30.24,SW,225,0.0,0.0,97,0.00,,CLR,0.00,VWS V14.01,2017-06-22 09:19:00,
2017-06-22 02:24:00,42.8,42.0,30.24,West,270,0.0,0.0,97,0.00,,CLR,0.00,VWS V14.01,2017-06-22 09:24:00,
2017-06-22 02:29:00,42.3,41.5,30.24,NE,45,0.0,0.0,97,0.00,,CLR,0.00,VWS V14.01,2017-06-22 09:29:00,
2017-06-22 02:34:00,42.3,41.5,30.24,NNE,22,0.0,0.0,97,0.00,,FEW040,0.00,VWS V14.01,2017-06-22 09:34:00,
2017-06-22 02:39:00,42.1,41.3,30.27,North,0,0.0,0.0,97,0.00,,FEW040,0.00,VWS V14.01,2017-06-22 09:39:00,
2017-06-22 02:44:00,41.7,40.9,30.27,WSW,248,0.0,0.0,97,0.00,,FEW040,0.00,VWS V14.01,2017-06-22 09:44:00,
2017-06-22 02:49:00,41.9,41.1,30.30,NE,45,0.0,0.0,97,0.00,,FEW040,0.00,VWS V14.01,2017-06-22 09:49:00,
2017-06-22 02:54:00,41.7,40.9,30.30,WSW,248,0.0,0.0,97,0.00,,FEW040,0.00,VWS V14.01,2017-06-22 09:54:00,
2017-06-22 02:59:00,41.5,40.8,30.30,SW,225,0.0,0.0,97,0.00,,FEW040,0.00,VWS V14.01,2017-06-22 09:59:00,
2017-06-22 03:04:00,41.4,40.6,30.30,West,270,0.0,0.0,97,0.00,,FEW040,0.00,VWS V14.01,2017-06-22 10:04:00,
2017-06-22 03:09:00,41.2,40.4,30.30,South,180,0.0,0.0,97,0.00,,FEW040,0.00,VWS V14.01,2017-06-22 10:09:00,
2017-06-22 03:14:00,41.0,40.2,30.30,West,270,0.0,0.0,97,0.00,,FEW040,0.00,VWS V14.01,2017-06-22 10:14:00,
2017-06-22 03:19:00,40.8,40.0,30.30,North,0,0.0,0.0,97,0.00,,FEW040,0.00,VWS V14.01,2017-06-22 10:19:00,
2017-06-22 03:24:00,40.8,40.0,30.30,SSW,202,0.0,0.0,97,0.00,,FEW040,0.00,VWS V14.01,2017-06-22 10:24:00,
2017-06-22 03:29:00,40.6,39.9,30.30,SW,225,0.0,0.0,97,0.00,,FEW040,0.00,VWS V14.01,2017-06-22 10:29:00,
2017-06-22 03:34:00,40.6,39.9,30.27,North,0,0.0,0.0,97,0.00,,CLR,0.00,VWS V14.01,2017-06-22 10:34:00,
2017-06-22 03:39:00,40.5,39.7,30.27,North,0,0.0,0.0,97,0.00,,CLR,0.00,VWS V14.01,2017-06-22 10:39:00,
2017-06-22 03:44:00,40.3,39.5,30.27,North,0,0.0,0.0,97,0.00,,CLR,0.00,VWS V14.01,2017-06-22 10:44:00,
2017-06-22 03:49:00,40.1,39.3,30.27,SW,225,0.0,0.0,97,0.00,,CLR,0.00,VWS V14.01,2017-06-22 10:49:00,
2017-06-22 03:54:00,39.9,39.1,30.27,SW,225,0.0,0.0,97,0.00,,CLR,0.00,VWS V14.01,2017-06-22 10:54:00,
2017-06-22 03:58:00,39.7,39.0,30.27,SW,225,0.0,0.0,97,0.00,,CLR,0.00,VWS V14.01,2017-06-22 10:58:00,
2017-06-22 04:03:00,39.7,39.0,30.27,SW,225,0.0,0.0,97,0.00,,CLR,0.00,VWS V14.01,2017-06-22 11:03:00,
2017-06-22 04:08:00,39.6,38.8,30.27,SW,225,0.0,0.0,97,0.00,,CLR,0.00,VWS V14.01,2017-06-22 11:08:00,
2017-06-22 04:13:00,39.6,38.8,30.27,SW,225,0.0,0.0,97,0.00,,CLR,0.00,VWS V14.01,2017-06-22 11:13:00,
2017-06-22 04:18:00,39.6,38.8,30.27,SW,225,0.0,0.0,97,0.00,,CLR,0.00,VWS V14.01,2017-06-22 11:18:00,
2017-06-22 04:23:00,39.4,38.6,30.24,NNE,22,0.0,0.0,97,0.00,,CLR,0.00,VWS V14.01,2017-06-22 11:23:00,
2017-06-22 04:28:00,39.6,39.0,30.24,WSW,248,0.0,0.0,98,0.00,,CLR,0.00,VWS V14.01,2017-06-22 11:28:00,
2017-06-22 04:33:00,39.4,38.9,30.24,WSW,248,0.0,0.0,98,0.00,,CLR,0.00,VWS V14.01,2017-06-22 11:33:00,
2017-06-22 04:38:00,39.2,38.7,30.24,WSW,248,0.0,0.0,98,0.00,,CLR,0.00,VWS V14.01,2017-06-22 11:38:00,
2017-06-22 04:43:00,39.0,38.5,30.24,WSW,248,0.0,0.0,98,0.00,,CLR,0.00,VWS V14.01,2017-06-22 11:43:00,
2017-06-22 04:48:00,39.0,38.5,30.24,WSW,248,0.0,0.0,98,0.00,,CLR,0.00,VWS V14.01,2017-06-22 11:48:00,
2017-06-22 04:53:00,39.0,38.5,30.24,WSW,248,0.0,0.0,98,0.00,,CLR,0.00,VWS V14.01,2017-06-22 11:53:00,
2017-06-22 04:58:00,39.0,38.5,30.24,SW,225,0.0,0.0,98,0.00,,CLR,0.00,VWS V14.01,2017-06-22 11:58:00,
2017-06-22 05:03:00,38.8,38.3,30.24,SW,225,0.0,0.0,98,0.00,,CLR,0.00,VWS V14.01,2017-06-22 12:03:00,
2017-06-22 05:08:00,38.8,38.1,30.24,West,270,0.0,0.0,97,0.00,,CLR,0.00,VWS V14.01,2017-06-22 12:08:00,
2017-06-22 05:13:00,38.8,38.3,30.24,West,270,0.0,0.0,98,0.00,,CLR,0.00,VWS V14.01,2017-06-22 12:13:00,
2017-06-22 05:18:00,38.8,38.3,30.24,West,270,0.0,0.0,98,0.00,,CLR,0.00,VWS V14.01,2017-06-22 12:18:00,
2017-06-22 05:23:00,38.7,38.2,30.24,West,270,0.0,0.0,98,0.00,,CLR,0.00,VWS V14.01,2017-06-22 12:23:00,
2017-06-22 05:28:00,38.5,38.0,30.24,West,270,0.0,0.0,98,0.00,,CLR,0.00,VWS V14.01,2017-06-22 12:28:00,
2017-06-22 05:33:00,38.5,38.0,30.24,West,270,0.0,0.0,98,0.00,,CLR,0.00,VWS V14.01,2017-06-22 12:33:00,
2017-06-22 05:38:00,38.5,38.0,30.24,West,270,0.0,0.0,98,0.00,,CLR,0.00,VWS V14.01,2017-06-22 12:38:00,
2017-06-22 05:43:00,38.3,37.8,30.24,West,270,0.0,0.0,98,0.00,,CLR,0.00,VWS V14.01,2017-06-22 12:43:00,
2017-06-22 05:48:00,38.3,37.8,30.24,West,270,0.0,0.0,98,0.00,,CLR,0.00,VWS V14.01,2017-06-22 12:48:00,
2017-06-22 05:53:00,38.3,37.8,30.24,West,270,0.0,0.0,98,0.00,,CLR,0.00,VWS V14.01,2017-06-22 12:53:00,
2017-06-22 05:58:00,38.5,38.0,30.24,West,270,0.0,0.0,98,0.00,,CLR,0.00,VWS V14.01,2017-06-22 12:58:00,
2017-06-22 06:03:00,38.5,38.0,30.30,West,270,0.0,0.0,98,0.00,,CLR,0.00,VWS V14.01,2017-06-22 13:03:00,
2017-06-22 06:08:00,38.7,38.2,30.30,WSW,248,0.0,0.0,98,0.00,,CLR,0.00,VWS V14.01,2017-06-22 13:08:00,
2017-06-22 06:13:00,39.0,38.5,30.30,SSW,202,0.0,0.0,98,0.00,,CLR,0.00,VWS V14.01,2017-06-22 13:13:00,
2017-06-22 06:18:00,38.8,38.3,30.30,SSW,202,0.0,0.0,98,0.00,,CLR,0.00,VWS V14.01,2017-06-22 13:18:00,
2017-06-22 06:23:00,39.0,38.5,30.30,SW,225,0.0,0.0,98,0.00,,CLR,0.00,VWS V14.01,2017-06-22 13:23:00,
2017-06-22 06:28:00,39.0,38.5,30.30,North,0,0.0,0.0,98,0.00,,CLR,0.00,VWS V14.01,2017-06-22 13:28:00,
2017-06-22 06:33:00,39.2,38.7,30.30,West,270,0.0,0.0,98,0.00,,CLR,0.00,VWS V14.01,2017-06-22 13:33:00,
2017-06-22 06:38:00,39.4,38.9,30.30,NE,45,0.0,0.0,98,0.00,,CLR,0.00,VWS V14.01,2017-06-22 13:38:00,
2017-06-22 06:43:00,39.7,39.2,30.30,NE,45,0.0,0.0,98,0.00,,CLR,0.00,VWS V14.01,2017-06-22 13:43:00,
2017-06-22 06:48:00,40.3,39.8,30.30,NE,45,0.0,0.0,98,0.00,,CLR,0.00,VWS V14.01,2017-06-22 13:48:00,
2017-06-22 06:53:00,41.2,40.7,30.30,NE,45,0.0,0.0,98,0.00,,CLR,0.00,VWS V14.01,2017-06-22 13:53:00,
2017-06-22 06:58:00,43.0,42.5,30.30,NE,45,0.0,0.0,98,0.00,,CLR,0.00,VWS V14.01,2017-06-22 13:58:00,
2017-06-22 07:03:00,43.9,43.3,30.33,NE,45,0.0,0.0,98,0.00,,CLR,0.00,VWS V14.01,2017-06-22 14:03:00,
2017-06-22 07:08:00,45.3,44.8,30.33,ENE,68,0.0,0.0,98,0.00,,CLR,0.00,VWS V14.01,2017-06-22 14:08:00,
2017-06-22 07:13:00,47.1,46.6,30.33,ENE,68,0.0,0.0,98,0.00,,CLR,0.00,VWS V14.01,2017-06-22 14:13:00,
2017-06-22 07:18:00,48.9,48.4,30.33,ENE,68,0.0,0.0,98,0.00,,CLR,0.00,VWS V14.01,2017-06-22 14:18:00,
2017-06-22 07:23:00,50.7,50.2,30.33,ENE,68,0.0,0.0,98,0.00,,CLR,0.00,VWS V14.01,2017-06-22 14:23:00,
2017-06-22 07:28:00,52.7,52.2,30.33,WSW,248,0.0,0.0,98,0.00,,CLR,0.00,VWS V14.01,2017-06-22 14:28:00,
2017-06-22 07:33:00,55.6,55.0,30.36,WSW,248,0.0,0.0,98,0.00,,CLR,0.00,VWS V14.01,2017-06-22 14:33:00,
2017-06-22 07:38:00,56.8,55.7,30.36,WSW,248,0.0,0.0,96,0.00,,CLR,0.00,VWS V14.01,2017-06-22 14:38:00,
2017-06-22 07:43:00,58.8,57.7,30.36,SW,225,0.0,0.0,96,0.00,,CLR,0.00,VWS V14.01,2017-06-22 14:43:00,
2017-06-22 07:48:00,60.6,59.5,30.36,SE,135,0.0,0.0,96,0.00,,CLR,0.00,VWS V14.01,2017-06-22 14:48:00,
2017-06-22 07:53:00,61.7,57.2,30.36,East,90,0.0,0.0,85,0.00,,CLR,0.00,VWS V14.01,2017-06-22 14:53:00,
2017-06-22 07:58:00,62.6,52.7,30.36,ENE,68,0.0,0.0,70,0.00,,CLR,0.00,VWS V14.01,2017-06-22 14:58:00,
2017-06-22 08:03:00,63.1,50.8,30.33,NNE,22,0.0,0.0,64,0.00,,CLR,0.00,VWS V14.01,2017-06-22 15:03:00,
2017-06-22 08:08:00,62.4,46.1,30.33,NNE,22,0.0,3.1,55,0.00,,CLR,0.00,VWS V14.01,2017-06-22 15:08:00,
2017-06-22 08:13:00,62.4,46.1,30.33,NE,45,0.0,3.1,55,0.00,,CLR,0.00,VWS V14.01,2017-06-22 15:13:00,
2017-06-22 08:18:00,64.6,46.6,30.33,ESE,112,0.0,3.1,52,0.00,,CLR,0.00,VWS V14.01,2017-06-22 15:18:00,
2017-06-22 08:23:00,64.9,47.4,30.33,East,90,0.0,3.1,53,0.00,,CLR,0.00,VWS V14.01,2017-06-22 15:23:00,